Time;durP1;ratioP1;P1;durP2;ratioP2;P2;SDS_P1;SDS_P2;PMS_P1;PMS_P2;Temp;Humidity;BMP_temperature;BMP_pressure;BME280_temperature;BME280_humidity;BME280_pressure;Samples;Min_cycle;Max_cycle;Signal;HPM_P1;HPM_P2
2024/01/22 00:01:09;;;;;;;6.38;4.22;;;;;;;11.15;61.07;100817.97;5008976;28;97618;-69
2024/01/22 00:03:36;;;;;;;7.25;4.50;;;;;;;11.20;61.07;100812.25;5001643;28;98080;-69
2024/01/22 00:06:02;;;;;;;9.20;4.53;;;;;;;11.23;61.04;100801.28;4982224;28;97606;-69
2024/01/22 00:08:30;;;;;;;7.43;4.15;;;;;;;11.28;61.08;100782.97;4995211;28;97229;-69
2024/01/22 00:10:56;;;;;;;5.38;3.78;;;;;;;11.31;60.87;100794.38;4995395;28;97315;-69
2024/01/22 00:13:23;;;;;;;5.68;4.30;;;;;;;11.35;61.14;100786.91;4989220;28;97416;-69
2024/01/22 00:15:50;;;;;;;7.47;4.60;;;;;;;11.40;60.64;100779.38;5000512;28;98073;-69
2024/01/22 00:18:16;;;;;;;5.78;4.00;;;;;;;11.44;60.76;100789.78;4990190;28;98285;-69
2024/01/22 00:20:44;;;;;;;7.07;4.53;;;;;;;11.49;61.03;100775.13;5007159;28;97628;-69
2024/01/22 00:23:11;;;;;;;4.60;3.78;;;;;;;11.53;60.76;100768.53;5000740;28;99587;-69
2024/01/22 00:25:38;;;;;;;4.80;3.92;;;;;;;11.55;60.97;100777.34;4998804;28;97714;-69
2024/01/22 00:28:06;;;;;;;4.70;4.00;;;;;;;11.57;60.89;100767.31;4999708;28;96888;-69
2024/01/22 00:30:32;;;;;;;5.68;3.95;;;;;;;11.60;60.67;100778.72;4992122;28;97125;-69
2024/01/22 00:32:59;;;;;;;8.45;4.68;;;;;;;11.63;60.69;100759.66;5008432;28;98116;-69
2024/01/22 00:35:27;;;;;;;4.60;3.58;;;;;;;11.67;60.71;100762.94;5000655;28;97526;-69
2024/01/22 00:37:54;;;;;;;7.40;4.32;;;;;;;11.68;60.69;100760.16;5004645;28;97909;-69
2024/01/22 00:40:20;;;;;;;7.40;3.85;;;;;;;11.69;60.81;100734.97;4999676;28;96893;-69
2024/01/22 00:42:47;;;;;;;5.75;4.10;;;;;;;11.73;60.56;100728.38;4993135;28;98109;-70
2024/01/22 00:45:14;;;;;;;7.18;4.13;;;;;;;11.76;60.35;100738.88;4995331;28;98701;-69
2024/01/22 00:47:40;;;;;;;4.68;3.75;;;;;;;11.80;60.47;100746.75;4990657;27;97208;-69
2024/01/22 00:50:08;;;;;;;6.15;3.80;;;;;;;11.83;60.71;100735.75;5004630;28;97224;-70
2024/01/22 00:52:34;;;;;;;4.78;4.15;;;;;;;11.85;60.68;100723.88;5001817;28;97624;-69
2024/01/22 00:55:01;;;;;;;6.53;4.05;;;;;;;11.88;60.52;100717.41;5000835;28;98068;-69
2024/01/22 00:57:28;;;;;;;5.75;3.63;;;;;;;11.89;60.64;100728.09;4997699;28;97036;-69
2024/01/22 00:59:54;;;;;;;8.00;3.90;;;;;;;11.93;60.61;100704.47;5004659;28;96922;-69
2024/01/22 01:02:21;;;;;;;5.82;3.65;;;;;;;11.93;60.21;100702.66;4999438;28;98026;-70
2024/01/22 01:04:47;;;;;;;5.80;3.47;;;;;;;11.97;60.42;100706.81;4999411;28;99808;-69
2024/01/22 01:07:14;;;;;;;6.70;3.80;;;;;;;11.99;60.46;100694.09;5003189;28;97001;-69
2024/01/22 01:09:41;;;;;;;5.72;3.60;;;;;;;12.03;60.30;100708.16;5008312;28;97294;-69
2024/01/22 01:12:10;;;;;;;6.82;3.60;;;;;;;12.04;60.08;100716.09;5001572;28;98036;-69
2024/01/22 01:14:37;;;;;;;5.38;3.58;;;;;;;12.07;60.38;100721.25;5005097;28;97489;-69
2024/01/22 01:17:04;;;;;;;6.35;4.20;;;;;;;12.09;60.33;100732.75;5004138;28;97358;-69
2024/01/22 01:19:31;;;;;;;6.28;3.53;;;;;;;12.14;60.14;100742.31;5003993;28;97335;-69
2024/01/22 01:21:58;;;;;;;4.38;3.30;;;;;;;12.17;60.35;100737.53;5002004;28;97703;-69
2024/01/22 01:24:24;;;;;;;5.53;3.40;;;;;;;12.22;60.11;100745.25;5009909;28;98130;-69
2024/01/22 01:26:51;;;;;;;5.75;3.50;;;;;;;12.26;60.36;100735.94;5009464;28;98189;-70
2024/01/22 01:29:18;;;;;;;6.50;3.13;;;;;;;12.29;60.07;100723.09;5003385;28;97244;-69
2024/01/22 01:31:45;;;;;;;4.63;3.10;;;;;;;12.34;60.10;100725.41;5001061;28;99263;-70
2024/01/22 01:34:11;;;;;;;5.03;3.17;;;;;;;12.37;60.29;100728.72;5003276;28;97824;-70
2024/01/22 01:36:38;;;;;;;4.38;3.17;;;;;;;12.40;60.30;100731.16;4998363;28;97602;-69
2024/01/22 01:39:05;;;;;;;5.43;3.50;;;;;;;12.41;59.93;100732.00;5029464;27;97101;-69
2024/01/22 01:41:32;;;;;;;6.82;3.42;;;;;;;12.41;60.22;100729.31;5005056;28;97809;-70
2024/01/22 01:43:59;;;;;;;4.78;3.33;;;;;;;12.41;59.99;100721.25;5004542;28;98277;-70
2024/01/22 01:46:25;;;;;;;4.55;3.13;;;;;;;12.42;60.12;100698.72;4999958;28;97476;-70
2024/01/22 01:48:52;;;;;;;4.20;3.15;;;;;;;12.44;60.20;100704.84;5000234;28;97067;-70
2024/01/22 01:51:20;;;;;;;4.53;3.10;;;;;;;12.46;59.86;100689.41;4986883;28;97565;-71
2024/01/22 01:53:48;;;;;;;7.88;3.40;;;;;;;12.48;60.00;100682.06;4990451;28;97557;-70
2024/01/22 01:56:15;;;;;;;6.00;3.40;;;;;;;12.49;59.98;100669.44;4997046;28;97097;-71
2024/01/22 01:58:42;;;;;;;4.57;2.75;;;;;;;12.48;60.22;100660.50;4995243;28;97041;-71
2024/01/22 02:01:09;;;;;;;5.97;2.78;;;;;;;12.49;59.98;100653.28;4987125;28;98060;-70
2024/01/22 02:03:38;;;;;;;4.43;3.10;;;;;;;12.50;60.10;100645.06;4998297;27;98509;-70
2024/01/22 02:06:05;;;;;;;5.82;3.30;;;;;;;12.50;60.48;100642.38;5006508;28;97757;-71
2024/01/22 02:08:32;;;;;;;5.32;3.22;;;;;;;12.52;60.38;100628.78;5015050;27;97068;-71
2024/01/22 02:10:59;;;;;;;4.40;3.10;;;;;;;12.52;60.28;100609.94;5012484;28;97904;-71
2024/01/22 02:13:28;;;;;;;6.05;3.15;;;;;;;12.53;60.19;100617.88;4996282;28;98234;-72
2024/01/22 02:15:55;;;;;;;4.90;2.70;;;;;;;12.54;60.48;100606.13;5006547;28;97213;-71
2024/01/22 02:18:22;;;;;;;6.95;3.20;;;;;;;12.57;60.12;100578.06;5004878;28;97636;-71
2024/01/22 02:20:49;;;;;;;4.43;2.60;;;;;;;12.57;60.50;100570.84;5000416;28;97722;-71
2024/01/22 02:23:16;;;;;;;6.53;2.80;;;;;;;12.60;60.65;100580.53;5006436;27;99916;-71
2024/01/22 02:25:42;;;;;;;3.95;2.60;;;;;;;12.61;60.48;100571.44;5008598;28;97253;-72
2024/01/22 02:28:09;;;;;;;3.30;2.40;;;;;;;12.65;60.62;100551.38;5007361;27;96894;-71
2024/01/22 02:30:36;;;;;;;4.88;2.53;;;;;;;12.69;60.20;100547.44;5013173;28;97689;-72
2024/01/22 02:33:03;;;;;;;5.65;2.50;;;;;;;12.72;60.30;100539.97;5000823;28;98131;-71
2024/01/22 02:35:30;;;;;;;4.57;2.47;;;;;;;12.76;60.28;100535.16;4997700;28;96800;-71
2024/01/22 02:37:57;;;;;;;4.88;2.42;;;;;;;12.80;60.14;100535.75;5003591;28;97012;-71
2024/01/22 02:40:23;;;;;;;4.97;2.33;;;;;;;12.82;60.43;100521.16;4991115;28;98025;-71
2024/01/22 02:42:50;;;;;;;3.60;2.10;;;;;;;12.84;60.58;100518.34;4997085;28;97675;-70
2024/01/22 02:45:17;;;;;;;2.95;2.35;;;;;;;12.85;60.10;100514.66;5000876;28;96835;-71
2024/01/22 02:47:44;;;;;;;4.95;2.53;;;;;;;12.86;60.62;100516.38;5009220;28;97184;-71
2024/01/22 02:50:11;;;;;;;4.32;2.15;;;;;;;12.87;60.46;100501.91;4998573;28;97403;-71
2024/01/22 02:52:38;;;;;;;4.68;2.40;;;;;;;12.87;60.68;100485.72;5000523;28;98027;-73
2024/01/22 02:55:05;;;;;;;3.15;2.38;;;;;;;12.87;60.27;100480.34;5006816;27;97109;-72
2024/01/22 02:57:32;;;;;;;2.95;2.20;;;;;;;12.85;60.54;100471.53;4988779;28;97162;-71
2024/01/22 02:59:59;;;;;;;3.83;2.03;;;;;;;12.85;60.67;100471.53;5010240;28;98297;-71
2024/01/22 03:02:26;;;;;;;3.05;2.50;;;;;;;12.83;60.71;100460.88;5002716;28;97440;-72
2024/01/22 03:04:52;;;;;;;4.15;2.40;;;;;;;12.83;60.80;100468.97;5007591;28;97057;-72
2024/01/22 03:07:19;;;;;;;4.03;1.90;;;;;;;12.82;60.70;100467.25;5003769;27;97151;-72
2024/01/22 03:09:45;;;;;;;2.45;2.20;;;;;;;12.82;60.70;100451.09;5004399;28;97580;-70
2024/01/22 03:12:12;;;;;;;2.92;2.10;;;;;;;12.80;60.53;100439.59;5005412;28;99978;-72
2024/01/22 03:14:39;;;;;;;3.88;2.40;;;;;;;12.79;60.98;100440.59;5004275;28;97290;-70
2024/01/22 03:17:05;;;;;;;3.92;2.28;;;;;;;12.79;61.11;100439.72;5003849;28;96980;-71
2024/01/22 03:19:32;;;;;;;4.57;2.40;;;;;;;12.79;61.21;100437.88;5014805;28;97608;-71
2024/01/22 03:21:59;;;;;;;3.83;2.15;;;;;;;12.79;60.92;100418.16;5002637;28;97611;-71
2024/01/22 03:24:27;;;;;;;4.00;2.08;;;;;;;12.80;61.26;100412.66;5004783;28;96920;-72
2024/01/22 03:26:58;;;;;;;3.67;2.10;;;;;;;12.82;61.33;100426.00;4996449;28;97421;-73
2024/01/22 03:29:25;;;;;;;2.25;1.85;;;;;;;12.86;61.54;100419.34;5003182;28;97529;-70
2024/01/22 03:31:51;;;;;;;3.85;1.85;;;;;;;12.87;61.08;100421.91;5002892;28;97776;-72
2024/01/22 03:34:18;;;;;;;3.25;2.10;;;;;;;12.91;61.21;100422.50;5007033;27;97534;-73
2024/01/22 03:36:44;;;;;;;4.03;2.08;;;;;;;12.94;61.54;100424.91;4993421;28;97109;-71
2024/01/22 03:39:11;;;;;;;3.45;1.98;;;;;;;12.95;61.49;100415.84;4987279;28;98159;-71
2024/01/22 03:41:39;;;;;;;2.70;2.10;;;;;;;12.97;61.36;100403.09;4993645;28;97638;-73
2024/01/22 03:44:06;;;;;;;2.60;1.75;;;;;;;13.00;61.32;100416.28;4993022;28;97030;-71
2024/01/22 03:46:32;;;;;;;2.35;1.73;;;;;;;13.02;61.61;100400.84;4993627;28;97287;-72
2024/01/22 03:48:59;;;;;;;2.65;1.85;;;;;;;13.04;61.58;100407.78;5006857;28;98165;-71
2024/01/22 03:51:26;;;;;;;4.28;2.15;;;;;;;13.07;61.60;100405.81;5010299;28;97617;-72
2024/01/22 03:53:52;;;;;;;2.97;1.92;;;;;;;13.07;61.81;100400.44;5011304;28;97333;-72
2024/01/22 03:56:20;;;;;;;4.82;2.20;;;;;;;13.08;61.78;100400.28;5011820;28;98727;-72
2024/01/22 03:58:47;;;;;;;3.35;2.00;;;;;;;13.07;61.81;100412.06;5006062;28;100134;-71
2024/01/22 04:01:23;;;;;;;2.65;2.15;;;;;;;13.03;61.93;100397.16;5015732;28;98233;-73
2024/01/22 04:03:50;;;;;;;3.40;2.08;;;;;;;13.02;61.82;100400.84;5008108;28;97322;-72
2024/01/22 04:06:17;;;;;;;2.75;2.10;;;;;;;13.00;62.01;100395.56;5003743;28;97397;-72
2024/01/22 04:08:44;;;;;;;2.25;1.75;;;;;;;12.98;62.23;100392.16;5000352;28;98188;-72
2024/01/22 04:11:12;;;;;;;2.28;1.70;;;;;;;12.99;62.18;100390.31;5002287;28;97457;-72
2024/01/22 04:13:40;;;;;;;3.95;2.03;;;;;;;13.00;62.54;100382.09;5002225;28;96857;-73
2024/01/22 04:16:10;;;;;;;3.00;1.65;;;;;;;13.02;62.42;100381.97;5000908;28;97919;-73
2024/01/22 04:18:38;;;;;;;3.90;1.80;;;;;;;13.03;63.00;100362.97;5005735;28;97979;-72
2024/01/22 04:21:05;;;;;;;1.98;1.67;;;;;;;13.07;62.94;100370.78;5001457;28;97670;-74
2024/01/22 04:23:34;;;;;;;2.97;1.70;;;;;;;13.09;63.02;100372.34;5000963;28;99756;-71
2024/01/22 04:26:05;;;;;;;2.75;1.73;;;;;;;13.12;63.27;100372.06;5002147;28;97068;-73
2024/01/22 04:28:31;;;;;;;3.50;1.50;;;;;;;13.17;63.24;100388.72;4999820;28;97675;-74
2024/01/22 04:30:58;;;;;;;2.08;1.30;;;;;;;13.20;63.31;100371.41;5002487;28;97551;-72
2024/01/22 04:33:25;;;;;;;4.07;1.80;;;;;;;13.23;63.33;100361.22;4995530;28;96988;-73
2024/01/22 04:35:52;;;;;;;2.88;1.70;;;;;;;13.28;63.69;100352.69;4999819;28;97952;-73
2024/01/22 04:38:18;;;;;;;1.85;1.30;;;;;;;13.32;63.47;100357.69;4989363;28;100075;-74
2024/01/22 04:40:45;;;;;;;2.95;1.40;;;;;;;13.37;63.35;100365.34;4988165;28;97490;-72
2024/01/22 04:43:11;;;;;;;3.78;1.30;;;;;;;13.43;63.81;100358.59;4999588;28;97208;-74
2024/01/22 04:45:38;;;;;;;4.22;1.40;;;;;;;13.47;63.67;100376.19;4986347;28;98178;-72
2024/01/22 04:48:05;;;;;;;2.05;1.30;;;;;;;13.51;63.62;100364.13;5008168;28;98093;-73
2024/01/22 04:50:32;;;;;;;2.08;1.17;;;;;;;13.57;63.43;100367.13;5000117;27;97407;-74
2024/01/22 04:52:59;;;;;;;1.95;1.20;;;;;;;13.62;63.71;100356.75;4988242;28;97625;-71
2024/01/22 04:55:25;;;;;;;2.15;1.08;;;;;;;13.67;63.34;100356.34;5005821;28;97608;-73
2024/01/22 04:57:58;;;;;;;2.90;1.30;;;;;;;13.72;63.29;100343.28;5000335;28;98125;-73
2024/01/22 05:00:25;;;;;;;1.58;1.35;;;;;;;13.74;63.44;100356.63;4997200;28;97504;-73
2024/01/22 05:02:51;;;;;;;1.48;1.23;;;;;;;13.77;63.42;100335.63;4995915;28;96806;-73
2024/01/22 05:05:22;;;;;;;3.70;1.50;;;;;;;13.80;63.46;100337.19;5011439;28;97072;-71
2024/01/22 05:07:48;;;;;;;3.60;1.55;;;;;;;13.81;63.47;100320.00;5016751;28;97715;-72
2024/01/22 05:10:15;;;;;;;2.10;1.50;;;;;;;13.84;63.41;100304.34;5016682;28;97871;-73
2024/01/22 05:12:42;;;;;;;1.50;1.27;;;;;;;13.84;63.45;100317.00;5000651;28;97107;-73
2024/01/22 05:15:12;;;;;;;1.88;1.40;;;;;;;13.84;63.36;100308.91;5005911;28;97124;-71
2024/01/22 05:17:40;;;;;;;2.17;1.27;;;;;;;13.84;63.50;100295.41;4978757;28;99042;-73
2024/01/22 05:20:07;;;;;;;5.00;1.58;;;;;;;13.86;63.56;100312.31;5001555;28;98829;-72
2024/01/22 05:22:37;;;;;;;1.80;1.20;;;;;;;13.86;63.71;100312.31;5012369;28;97781;-71
2024/01/22 05:25:04;;;;;;;2.75;1.35;;;;;;;13.88;63.63;100303.06;5010643;28;97886;-71
2024/01/22 05:27:31;;;;;;;2.25;1.10;;;;;;;13.92;63.70;100298.25;5011608;28;97750;-73
2024/01/22 05:29:57;;;;;;;1.65;1.23;;;;;;;13.93;63.69;100310.75;4999808;28;97764;-72
2024/01/22 05:32:24;;;;;;;1.80;1.00;;;;;;;13.95;63.37;100323.09;5001312;28;97096;-73
2024/01/22 05:34:51;;;;;;;1.63;0.90;;;;;;;14.00;63.45;100317.28;5004086;28;97931;-70
2024/01/22 05:37:17;;;;;;;2.03;1.00;;;;;;;14.04;63.33;100321.38;4997825;28;97984;-73
2024/01/22 05:39:44;;;;;;;1.60;1.00;;;;;;;14.10;63.54;100330.75;5006339;28;97740;-71
2024/01/22 05:42:11;;;;;;;3.40;1.25;;;;;;;14.16;63.43;100331.06;4995518;28;96924;-72
2024/01/22 05:44:38;;;;;;;2.13;1.00;;;;;;;14.24;63.72;100322.25;4999347;28;97357;-73
2024/01/22 05:47:05;;;;;;;1.45;0.90;;;;;;;14.31;63.74;100347.66;5000736;28;97715;-71
2024/01/22 05:49:32;;;;;;;2.97;1.02;;;;;;;14.37;63.68;100354.34;4998008;28;97429;-70
2024/01/22 05:51:59;;;;;;;1.52;0.82;;;;;;;14.43;63.61;100330.31;4997768;28;98446;-71
2024/01/22 05:54:26;;;;;;;1.67;1.00;;;;;;;14.49;63.48;100337.84;5003427;28;96895;-72
2024/01/22 05:56:53;;;;;;;1.20;0.70;;;;;;;14.54;63.56;100338.25;5002051;28;98239;-73
2024/01/22 05:59:20;;;;;;;3.08;0.82;;;;;;;14.59;63.67;100332.41;5004656;28;97484;-72
2024/01/22 06:01:46;;;;;;;3.53;1.10;;;;;;;14.63;63.25;100350.88;5010955;28;97200;-72
2024/01/22 06:04:15;;;;;;;2.13;1.00;;;;;;;14.70;63.51;100345.75;5011773;28;97673;-70
2024/01/22 06:06:42;;;;;;;4.10;1.10;;;;;;;14.76;63.23;100355.13;5017420;28;97957;-71
2024/01/22 06:09:12;;;;;;;3.95;1.00;;;;;;;14.83;62.94;100358.94;5003090;28;98057;-71
2024/01/22 06:11:39;;;;;;;3.17;1.20;;;;;;;14.87;63.11;100363.06;4988053;28;97247;-71
2024/01/22 06:14:07;;;;;;;6.00;1.20;;;;;;;14.92;63.00;100347.25;5004150;28;97507;-71
2024/01/22 06:16:34;;;;;;;2.65;0.98;;;;;;;14.97;63.00;100352.22;5014140;28;98300;-70
2024/01/22 06:19:01;;;;;;;4.65;1.35;;;;;;;14.99;62.92;100367.28;5010275;28;97665;-70
2024/01/22 06:21:28;;;;;;;3.10;0.93;;;;;;;15.04;62.81;100369.53;5002517;28;97128;-71
2024/01/22 06:23:55;;;;;;;4.28;1.10;;;;;;;15.06;62.56;100373.81;5003175;28;97227;-71
2024/01/22 06:26:22;;;;;;;2.80;1.02;;;;;;;15.09;62.40;100368.09;5006435;28;98319;-70
2024/01/22 06:28:49;;;;;;;2.42;0.90;;;;;;;15.10;62.52;100388.72;5002585;28;97789;-72
2024/01/22 06:31:15;;;;;;;2.42;0.90;;;;;;;15.12;62.65;100392.13;5000132;28;96940;-71
2024/01/22 06:33:42;;;;;;;3.65;1.23;;;;;;;15.14;62.51;100364.94;5004634;28;97293;-71
2024/01/22 06:36:12;;;;;;;2.33;0.95;;;;;;;15.14;62.02;100373.91;5002115;27;98153;-70
2024/01/22 06:38:39;;;;;;;3.13;0.80;;;;;;;15.15;62.48;100351.28;4992076;28;97882;-71
2024/01/22 06:41:11;;;;;;;3.78;1.08;;;;;;;15.14;62.38;100360.38;4992536;28;97031;-71
2024/01/22 06:43:39;;;;;;;4.88;1.17;;;;;;;15.14;62.04;100362.25;5000346;28;96880;-71
2024/01/22 06:46:06;;;;;;;4.07;1.40;;;;;;;15.12;62.12;100378.63;4998909;28;97555;-70
2024/01/22 06:48:33;;;;;;;2.30;1.45;;;;;;;15.10;62.10;100391.44;4994946;28;99835;-70
2024/01/22 06:51:00;;;;;;;4.35;1.50;;;;;;;15.07;62.47;100375.50;4994677;28;97104;-71
2024/01/22 06:53:27;;;;;;;4.15;1.45;;;;;;;15.05;62.29;100387.47;5006168;28;97094;-71
2024/01/22 06:55:54;;;;;;;1.95;1.02;;;;;;;15.04;62.51;100383.91;4997951;28;97861;-70
2024/01/22 06:58:22;;;;;;;3.47;1.38;;;;;;;15.02;62.47;100376.97;4991569;28;101869;-70
2024/01/22 07:00:51;;;;;;;2.55;1.10;;;;;;;15.00;62.43;100376.25;4990572;28;97259;-71
2024/01/22 07:03:20;;;;;;;3.53;1.20;;;;;;;15.00;62.19;100377.09;4987431;28;97363;-71
2024/01/22 07:05:47;;;;;;;3.10;1.35;;;;;;;14.99;62.37;100372.69;4997130;28;99985;-70
2024/01/22 07:08:15;;;;;;;2.30;1.30;;;;;;;14.99;62.34;100369.16;4994722;28;100554;-70
2024/01/22 07:10:41;;;;;;;6.85;1.73;;;;;;;14.99;62.16;100383.50;5000103;28;96954;-71
2024/01/22 07:13:11;;;;;;;3.80;1.30;;;;;;;14.99;62.27;100378.09;4999201;28;97468;-70
2024/01/22 07:15:40;;;;;;;3.90;1.20;;;;;;;15.01;62.12;100380.66;4991779;28;98106;-72
2024/01/22 07:18:08;;;;;;;5.10;1.50;;;;;;;15.02;61.92;100371.53;4998300;28;98537;-71
2024/01/22 07:20:34;;;;;;;4.90;1.73;;;;;;;15.03;62.13;100374.09;5006986;28;97052;-70
2024/01/22 07:23:01;;;;;;;5.20;1.75;;;;;;;15.03;62.02;100378.66;4994479;28;97323;-72
2024/01/22 07:25:31;;;;;;;7.95;2.53;;;;;;;15.03;62.15;100390.31;4996752;28;97615;-72
2024/01/22 07:27:58;;;;;;;5.78;2.45;;;;;;;15.05;61.86;100390.19;5004751;28;98165;-72
2024/01/22 07:30:24;;;;;;;6.55;1.90;;;;;;;15.06;62.04;100373.81;4996848;28;97397;-72
2024/01/22 07:32:51;;;;;;;7.88;2.15;;;;;;;15.08;61.66;100382.63;5002565;27;97777;-71
2024/01/22 07:35:18;;;;;;;7.32;2.20;;;;;;;15.09;61.89;100387.03;4994723;28;97768;-72
2024/01/22 07:37:45;;;;;;;9.30;2.30;;;;;;;15.11;61.66;100393.13;4994953;28;97599;-71
2024/01/22 07:40:13;;;;;;;6.40;2.28;;;;;;;15.11;61.56;100398.56;4993124;28;97345;-71
2024/01/22 07:42:41;;;;;;;7.13;2.58;;;;;;;15.12;61.51;100408.38;4991031;28;97416;-72
2024/01/22 07:45:10;;;;;;;8.38;2.20;;;;;;;15.12;61.75;100411.06;4994208;28;97503;-71
2024/01/22 07:47:38;;;;;;;7.90;2.55;;;;;;;15.11;61.54;100403.97;5006821;28;97678;-71
2024/01/22 07:50:09;;;;;;;7.68;2.78;;;;;;;15.12;61.45;100407.50;4999327;28;97078;-72
2024/01/22 07:52:37;;;;;;;8.60;3.15;;;;;;;15.12;61.26;100405.66;5003033;28;97175;-71
2024/01/22 07:55:05;;;;;;;5.63;2.03;;;;;;;15.13;61.21;100409.22;5011286;28;100131;-70
2024/01/22 07:57:32;;;;;;;10.07;2.50;;;;;;;15.12;61.24;100407.50;5000093;28;98245;-72
2024/01/22 07:59:59;;;;;;;8.15;2.50;;;;;;;15.10;61.53;100404.09;5012061;28;97085;-71
2024/01/22 08:02:26;;;;;;;8.43;2.42;;;;;;;15.07;61.51;100399.84;5014995;28;97215;-72
2024/01/22 08:04:52;;;;;;;7.97;2.88;;;;;;;15.06;61.35;100403.56;5001990;28;97170;-70
2024/01/22 08:07:19;;;;;;;8.43;2.53;;;;;;;15.05;61.50;100409.13;4997234;28;98485;-72
2024/01/22 08:09:47;;;;;;;8.25;2.53;;;;;;;15.03;61.56;100401.16;4991980;28;97234;-70
2024/01/22 08:12:14;;;;;;;11.15;3.00;;;;;;;15.02;61.40;100395.88;5000169;28;97157;-70
2024/01/22 08:14:40;;;;;;;7.63;2.60;;;;;;;15.01;61.59;100400.44;5002793;28;98393;-70
2024/01/22 08:17:07;;;;;;;8.93;2.63;;;;;;;14.99;61.31;100407.00;4997764;28;98742;-71
2024/01/22 08:19:34;;;;;;;8.55;2.38;;;;;;;14.96;61.76;100391.06;4995272;28;96945;-70
2024/01/22 08:22:02;;;;;;;13.65;3.05;;;;;;;14.92;61.76;100404.88;4998400;28;96910;-71
2024/01/22 08:24:31;;;;;;;7.53;2.95;;;;;;;14.91;61.86;100419.41;4993006;28;97604;-70
2024/01/22 08:26:57;;;;;;;6.80;2.58;;;;;;;14.88;61.53;100417.00;4988336;28;98375;-70
2024/01/22 08:29:24;;;;;;;6.47;2.47;;;;;;;14.85;61.93;100419.09;4998776;28;97313;-70
2024/01/22 08:31:53;;;;;;;10.25;2.75;;;;;;;14.85;62.00;100417.25;5001543;28;97591;-70
2024/01/22 08:34:19;;;;;;;8.98;3.00;;;;;;;14.85;61.67;100432.63;4996728;28;97719;-70
2024/01/22 08:36:46;;;;;;;8.80;2.80;;;;;;;14.83;61.78;100440.03;4990231;28;97681;-70
2024/01/22 08:39:13;;;;;;;8.25;2.90;;;;;;;14.81;61.96;100432.06;4995326;28;97159;-70
2024/01/22 08:41:40;;;;;;;6.40;2.47;;;;;;;14.81;61.78;100433.91;5007701;28;97059;-70
2024/01/22 08:44:07;;;;;;;5.82;2.30;;;;;;;14.81;62.16;100439.31;4985594;28;97689;-70
2024/01/22 08:46:34;;;;;;;7.95;2.80;;;;;;;14.80;62.32;100435.78;4990418;28;98381;-70
2024/01/22 08:49:00;;;;;;;10.80;3.42;;;;;;;14.79;62.39;100431.38;5002414;28;97279;-70
2024/01/22 08:51:28;;;;;;;11.48;2.80;;;;;;;14.80;62.32;100429.50;5022325;27;97339;-70
2024/01/22 08:53:55;;;;;;;8.45;2.90;;;;;;;14.80;62.66;100445.72;5004534;28;97780;-70
2024/01/22 08:56:22;;;;;;;10.45;3.47;;;;;;;14.80;62.17;100454.69;5005648;28;97888;-70
2024/01/22 08:58:48;;;;;;;10.52;3.47;;;;;;;14.79;62.34;100465.66;5007015;28;97024;-70
2024/01/22 09:01:15;;;;;;;14.02;3.88;;;;;;;14.79;62.28;100458.41;5005664;28;97216;-70
2024/01/22 09:03:42;;;;;;;12.18;3.72;;;;;;;14.79;62.71;100439.47;4994163;27;97632;-71
2024/01/22 09:06:09;;;;;;;12.68;4.45;;;;;;;14.79;62.39;100454.84;5001738;28;97409;-70
2024/01/22 09:08:36;;;;;;;15.30;4.28;;;;;;;14.77;62.62;100449.56;5002129;28;96980;-71
2024/01/22 09:11:03;;;;;;;12.77;3.60;;;;;;;14.77;62.73;100451.44;5000266;28;97347;-70
2024/01/22 09:13:30;;;;;;;10.27;3.65;;;;;;;14.77;62.63;100440.63;5000292;28;97970;-70
2024/01/22 09:15:57;;;;;;;17.20;4.90;;;;;;;14.76;62.85;100431.66;4994685;28;98101;-71
2024/01/22 09:18:25;;;;;;;14.50;4.32;;;;;;;14.77;62.98;100435.22;5000964;28;97107;-71
2024/01/22 09:20:53;;;;;;;13.15;4.32;;;;;;;14.75;63.01;100445.31;5000151;28;98152;-70
2024/01/22 09:23:20;;;;;;;13.80;4.28;;;;;;;14.75;63.13;100488.56;4994579;28;98108;-71
2024/01/22 09:25:47;;;;;;;14.63;4.95;;;;;;;14.72;62.74;100530.25;5005495;28;97761;-71
2024/01/22 09:28:18;;;;;;;16.77;5.15;;;;;;;14.66;62.98;100511.91;4990122;28;97161;-73
2024/01/22 09:30:45;;;;;;;12.00;3.60;;;;;;;14.59;63.18;100503.53;5006382;28;101138;-73
2024/01/22 09:33:11;;;;;;;10.98;2.90;;;;;;;14.51;62.57;100510.63;4999025;28;100371;-73
2024/01/22 09:35:40;;;;;;;10.77;2.80;;;;;;;14.42;62.70;100531.25;5005203;28;97406;-73
2024/01/22 09:38:08;;;;;;;8.85;2.85;;;;;;;14.30;62.58;100522.41;4999756;28;97311;-74
2024/01/22 09:40:34;;;;;;;9.98;3.15;;;;;;;14.21;62.41;100525.09;5001440;28;97675;-73
2024/01/22 09:43:06;;;;;;;10.10;2.80;;;;;;;14.09;62.23;100516.22;4994727;28;97801;-73
2024/01/22 09:45:34;;;;;;;8.40;2.92;;;;;;;13.99;62.28;100524.31;5001472;28;97906;-71
2024/01/22 09:48:02;;;;;;;7.68;2.78;;;;;;;13.91;62.07;100523.28;5013950;28;97079;-71
2024/01/22 09:50:30;;;;;;;11.07;2.53;;;;;;;13.83;62.02;100540.19;5003608;28;97349;-73
2024/01/22 09:53:08;;;;;;;11.73;3.40;;;;;;;13.77;62.12;100559.63;4999534;28;98187;-73
2024/01/22 09:55:41;;;;;;;14.15;2.97;;;;;;;13.72;62.16;100563.72;5005430;28;98557;-72
2024/01/22 09:58:09;;;;;;;10.30;2.97;;;;;;;13.67;62.21;100575.78;5002952;28;97017;-73
2024/01/22 10:00:37;;;;;;;7.50;3.30;;;;;;;13.62;62.58;100574.47;5006916;27;96821;-71
2024/01/22 10:03:05;;;;;;;11.40;2.80;;;;;;;13.57;62.54;100569.47;5009158;28;97547;-74
2024/01/22 10:05:31;;;;;;;10.88;3.20;;;;;;;13.55;62.69;100589.50;5011493;28;97597;-74
2024/01/22 10:07:58;;;;;;;10.68;3.17;;;;;;;13.50;62.59;100584.50;5011471;28;97413;-72
2024/01/22 10:10:25;;;;;;;10.68;3.28;;;;;;;13.47;62.92;100583.91;5004550;28;97195;-74
2024/01/22 10:12:56;;;;;;;13.48;3.40;;;;;;;13.43;62.79;100596.81;4999548;28;98640;-73
2024/01/22 10:15:23;;;;;;;11.32;3.55;;;;;;;13.41;62.52;100574.50;4998458;28;97517;-73
2024/01/22 10:17:50;;;;;;;16.23;4.03;;;;;;;13.42;62.74;100567.28;5002378;28;96846;-72
2024/01/22 10:20:22;;;;;;;15.13;4.22;;;;;;;13.40;62.77;100569.25;4999352;28;97644;-74
2024/01/22 10:22:59;;;;;;;14.65;3.60;;;;;;;13.39;62.48;100581.03;4999293;28;98408;-72
2024/01/22 10:25:26;;;;;;;14.82;5.03;;;;;;;13.38;62.39;100582.88;5003359;28;97688;-74
2024/01/22 10:28:06;;;;;;;11.57;3.65;;;;;;;13.35;62.50;100573.19;4999834;28;97612;-72
2024/01/22 10:30:35;;;;;;;18.02;4.15;;;;;;;13.36;62.46;100584.81;5012413;28;97347;-74
2024/01/22 10:33:12;;;;;;;10.25;3.90;;;;;;;13.33;62.54;100607.50;5004633;28;97512;-73
2024/01/22 10:35:39;;;;;;;11.15;3.42;;;;;;;13.34;62.33;100630.81;4972744;28;98415;-71
2024/01/22 10:38:09;;;;;;;15.18;4.40;;;;;;;13.32;62.53;100648.97;4994937;28;97218;-73
2024/01/22 10:40:36;;;;;;;17.15;4.55;;;;;;;13.29;62.35;100616.88;4991560;28;97258;-71
2024/01/22 10:43:28;;;;;;;14.93;3.50;;;;;;;13.24;61.99;100659.56;4992682;28;98142;-73
2024/01/22 10:45:58;;;;;;;14.77;4.63;;;;;;;13.24;62.15;100639.81;4989845;28;97484;-74
2024/01/22 10:48:28;;;;;;;15.93;4.63;;;;;;;13.21;62.00;100653.56;5012740;28;96692;-71
2024/01/22 10:51:09;;;;;;;16.17;4.30;;;;;;;13.21;62.05;100656.25;5013018;28;97087;-71
2024/01/22 10:53:38;;;;;;;19.25;4.55;;;;;;;13.18;62.06;100651.97;5006221;28;97544;-74
2024/01/22 10:56:14;;;;;;;18.85;4.20;;;;;;;13.16;62.06;100658.47;4995637;28;98169;-74
2024/01/22 10:58:43;;;;;;;17.63;3.92;;;;;;;13.15;62.19;100663.00;4997199;28;97125;-73
2024/01/22 11:01:18;;;;;;;17.55;4.65;;;;;;;13.14;62.40;100660.44;4991381;28;97618;-73
2024/01/22 11:03:47;;;;;;;19.42;4.78;;;;;;;13.12;62.17;100668.66;5006138;28;97750;-73
2024/01/22 11:06:20;;;;;;;16.02;4.78;;;;;;;13.12;62.24;100676.75;5009000;28;97440;-75
2024/01/22 11:08:54;;;;;;;15.32;4.75;;;;;;;13.11;62.33;100688.50;5006273;28;97289;-71
2024/01/22 11:11:26;;;;;;;20.50;5.93;;;;;;;13.11;62.32;100677.72;5011101;28;96975;-75
2024/01/22 11:14:01;;;;;;;19.02;5.25;;;;;;;13.12;62.27;100676.75;4999114;28;98519;-73
2024/01/22 11:16:30;;;;;;;19.27;5.28;;;;;;;13.12;62.45;100684.81;4992494;28;97695;-74
2024/01/22 11:19:05;;;;;;;27.50;6.03;;;;;;;13.14;62.26;100673.91;5005459;27;98652;-71
2024/01/22 11:21:38;;;;;;;19.90;5.30;;;;;;;13.13;62.05;100686.53;5002240;28;97499;-74
2024/01/22 11:24:14;;;;;;;21.30;5.15;;;;;;;13.12;62.00;100698.31;5003221;28;97754;-74
2024/01/22 11:26:50;;;;;;;21.08;6.47;;;;;;;13.12;61.88;100686.66;4995964;28;97604;-72